Time;durP1;ratioP1;P1;durP2;ratioP2;P2;SDS_P1;SDS_P2;PMS_P1;PMS_P2;Temp;Humidity;BMP_temperature;BMP_pressure;BME280_temperature;BME280_humidity;BME280_pressure;Samples;Min_cycle;Max_cycle;Signal;HPM_P1;HPM_P2
2023/01/02 00:01:04;;;;;;;5.47;2.35;;;;;;;;;;5070346;28;20094;-88
2023/01/02 00:03:31;;;;;;;3.40;2.35;;;;;;;;;;5052973;28;20041;-89
2023/01/02 00:05:57;;;;;;;6.07;3.17;;;;;;;;;;5068208;28;20043;-88
2023/01/02 00:08:23;;;;;;;6.18;3.08;;;;;;;;;;5070632;28;20462;-83
2023/01/02 00:10:49;;;;;;;15.65;5.25;;;;;;;;;;5081741;28;20392;-83
2023/01/02 00:13:15;;;;;;;9.65;2.90;;;;;;;;;;5087548;28;20052;-86
2023/01/02 00:15:41;;;;;;;10.85;4.97;;;;;;;;;;5067011;28;20052;-84
2023/01/02 00:18:07;;;;;;;7.07;3.20;;;;;;;;;;5070022;28;20454;-89
2023/01/02 00:20:33;;;;;;;8.70;4.70;;;;;;;;;;5058883;28;20025;-86
2023/01/02 00:22:59;;;;;;;8.57;4.10;;;;;;;;;;5087989;28;20350;-86
2023/01/02 00:25:25;;;;;;;8.43;4.03;;;;;;;;;;5081800;28;20039;-83
2023/01/02 00:27:51;;;;;;;7.47;4.68;;;;;;;;;;5075025;28;20036;-89
2023/01/02 00:30:17;;;;;;;9.23;5.30;;;;;;;;;;5063631;28;20019;-89
2023/01/02 00:32:43;;;;;;;10.57;5.88;;;;;;;;;;5072836;28;20043;-88
2023/01/02 00:35:09;;;;;;;15.90;7.07;;;;;;;;;;5090810;28;20025;-85
2023/01/02 00:37:35;;;;;;;11.98;6.72;;;;;;;;;;5087279;28;20033;-83
2023/01/02 00:40:01;;;;;;;14.88;8.10;;;;;;;;;;5065597;28;20025;-85
2023/01/02 00:42:27;;;;;;;12.82;6.63;;;;;;;;;;5080435;28;20052;-83
2023/01/02 00:44:53;;;;;;;11.60;6.43;;;;;;;;;;5082067;28;20131;-88
2023/01/02 00:47:19;;;;;;;12.57;7.10;;;;;;;;;;5085400;28;20016;-84
2023/01/02 00:49:45;;;;;;;8.70;6.03;;;;;;;;;;5095653;28;20029;-84
2023/01/02 00:52:11;;;;;;;13.35;6.32;;;;;;;;;;5080201;28;20107;-88
2023/01/02 00:54:37;;;;;;;10.88;6.88;;;;;;;;;;5083641;28;20044;-85
2023/01/02 00:57:03;;;;;;;9.50;6.30;;;;;;;;;;5077006;28;20009;-85
2023/01/02 00:59:29;;;;;;;14.18;6.72;;;;;;;;;;5073347;28;20016;-85
2023/01/02 01:01:55;;;;;;;12.35;5.85;;;;;;;;;;5070286;28;20385;-89
2023/01/02 01:04:21;;;;;;;8.93;6.28;;;;;;;;;;5080109;28;20039;-86
2023/01/02 01:06:47;;;;;;;12.32;5.97;;;;;;;;;;5049311;28;20033;-87
2023/01/02 01:09:13;;;;;;;11.75;6.28;;;;;;;;;;5068612;28;20027;-85
2023/01/02 01:11:39;;;;;;;9.35;5.97;;;;;;;;;;5081473;28;20032;-84
2023/01/02 01:14:05;;;;;;;9.77;5.97;;;;;;;;;;5082950;28;20043;-83
2023/01/02 01:16:31;;;;;;;9.27;5.60;;;;;;;;;;5079150;28;20024;-82
2023/01/02 01:18:57;;;;;;;7.28;5.45;;;;;;;;;;5084561;28;20031;-88
2023/01/02 01:21:23;;;;;;;7.20;5.18;;;;;;;;;;5067751;28;20028;-85
2023/01/02 01:23:54;;;;;;;10.40;6.57;;;;;;;;;;5081397;28;20035;-85
2023/01/02 01:26:20;;;;;;;8.25;6.63;;;;;;;;;;5082156;28;20040;-85
2023/01/02 01:28:46;;;;;;;6.25;5.65;;;;;;;;;;5084119;28;20055;-86
2023/01/02 01:31:14;;;;;;;9.02;6.90;;;;;;;;;;5062710;28;20012;-83
2023/01/02 01:33:40;;;;;;;10.30;6.75;;;;;;;;;;5106092;28;20027;-82
2023/01/02 01:36:08;;;;;;;10.18;7.10;;;;;;;;;;5096709;28;20465;-85
2023/01/02 01:38:34;;;;;;;10.05;7.45;;;;;;;;;;5062915;28;20028;-85
2023/01/02 01:41:01;;;;;;;11.48;7.97;;;;;;;;;;5086302;28;20020;-86
2023/01/02 01:43:35;;;;;;;12.25;7.85;;;;;;;;;;5074305;28;20045;-84
2023/01/02 01:46:02;;;;;;;11.60;8.40;;;;;;;;;;5075967;28;20031;-88
2023/01/02 01:48:28;;;;;;;14.80;8.55;;;;;;;;;;5072965;28;20032;-84
2023/01/02 01:50:54;;;;;;;13.00;8.90;;;;;;;;;;5075263;28;20033;-84
2023/01/02 01:53:22;;;;;;;15.85;9.30;;;;;;;;;;5060582;28;20036;-84
2023/01/02 01:55:50;;;;;;;14.63;9.35;;;;;;;;;;5062336;28;20028;-84
2023/01/02 01:58:21;;;;;;;16.77;9.73;;;;;;;;;;5067812;28;20032;-85
2023/01/02 02:00:47;;;;;;;17.17;10.40;;;;;;;;;;5076706;28;20033;-84
2023/01/02 02:03:18;;;;;;;19.52;11.65;;;;;;;;;;5056725;28;20094;-82
2023/01/02 02:05:45;;;;;;;20.38;12.52;;;;;;;;;;5071680;28;20043;-86
2023/01/02 02:08:15;;;;;;;18.77;11.85;;;;;;;;;;5065551;28;20032;-86
2023/01/02 02:10:41;;;;;;;20.23;12.30;;;;;;;;;;5086774;28;20038;-86
2023/01/02 02:13:07;;;;;;;25.60;13.05;;;;;;;;;;5074660;28;20036;-85
2023/01/02 02:15:44;;;;;;;23.23;13.45;;;;;;;;;;5051569;28;20040;-84
2023/01/02 02:18:19;;;;;;;23.40;13.27;;;;;;;;;;5063698;28;20040;-83
2023/01/02 02:21:11;;;;;;;27.15;13.48;;;;;;;;;;5068666;28;20344;-83
2023/01/02 02:23:37;;;;;;;22.30;14.13;;;;;;;;;;5083505;28;20047;-83
2023/01/02 02:26:12;;;;;;;21.98;13.93;;;;;;;;;;5066570;28;20376;-84
2023/01/02 02:28:41;;;;;;;27.38;14.77;;;;;;;;;;5067091;28;20415;-82
2023/01/02 02:31:07;;;;;;;22.15;14.25;;;;;;;;;;5058165;28;20087;-82
2023/01/02 02:33:45;;;;;;;19.40;13.05;;;;;;;;;;5054948;28;20122;-81
2023/01/02 02:36:16;;;;;;;23.08;13.98;;;;;;;;;;5077147;28;20037;-82
2023/01/02 02:38:57;;;;;;;24.65;14.23;;;;;;;;;;5062821;28;20028;-81
2023/01/02 02:41:23;;;;;;;21.88;14.00;;;;;;;;;;5068485;28;20032;-81
2023/01/02 02:43:55;;;;;;;23.00;13.73;;;;;;;;;;5062402;28;20399;-82
2023/01/02 02:46:31;;;;;;;17.92;13.15;;;;;;;;;;5064949;28;20041;-82
2023/01/02 02:49:03;;;;;;;21.90;13.77;;;;;;;;;;5066165;28;20028;-83
2023/01/02 02:51:34;;;;;;;20.05;13.15;;;;;;;;;;5069254;28;20028;-82
2023/01/02 02:54:08;;;;;;;21.77;13.90;;;;;;;;;;5055908;28;20021;-83
2023/01/02 02:56:35;;;;;;;23.92;13.05;;;;;;;;;;5063954;28;20035;-81
2023/01/02 02:59:01;;;;;;;21.75;14.15;;;;;;;;;;5058861;28;20032;-84
2023/01/02 03:01:28;;;;;;;20.48;13.30;;;;;;;;;;5066907;28;20036;-81
2023/01/02 03:03:54;;;;;;;25.98;14.73;;;;;;;;;;5065503;28;20095;-81
2023/01/02 03:06:30;;;;;;;30.23;15.77;;;;;;;;;;5072269;28;20040;-84
2023/01/02 03:09:14;;;;;;;25.63;14.48;;;;;;;;;;5057980;28;20033;-83
2023/01/02 03:11:40;;;;;;;25.90;14.98;;;;;;;;;;5061059;28;20090;-84
2023/01/02 03:14:07;;;;;;;26.25;13.93;;;;;;;;;;5061847;28;20484;-86
2023/01/02 03:16:38;;;;;;;21.60;14.68;;;;;;;;;;5054243;28;20020;-79
2023/01/02 03:19:23;;;;;;;25.98;17.17;;;;;;;;;;5061744;28;20040;-83
2023/01/02 03:21:58;;;;;;;38.03;22.52;;;;;;;;;;5062925;28;20029;-78
2023/01/02 03:24:25;;;;;;;27.90;16.05;;;;;;;;;;5052391;28;20146;-83
2023/01/02 03:26:54;;;;;;;33.13;16.63;;;;;;;;;;5069918;28;20078;-81
2023/01/02 03:29:24;;;;;;;31.02;16.00;;;;;;;;;;5062419;28;20040;-82
2023/01/02 03:31:50;;;;;;;25.25;14.88;;;;;;;;;;5059521;28;20029;-82
2023/01/02 03:34:24;;;;;;;27.23;15.15;;;;;;;;;;5051036;28;20045;-81
2023/01/02 03:36:53;;;;;;;29.23;16.17;;;;;;;;;;5052629;28;20056;-81
2023/01/02 03:39:21;;;;;;;27.50;16.30;;;;;;;;;;5052784;28;20030;-81
2023/01/02 03:41:52;;;;;;;28.05;15.82;;;;;;;;;;5070965;28;20033;-80
2023/01/02 03:44:19;;;;;;;33.37;15.97;;;;;;;;;;5070404;28;20052;-80
2023/01/02 03:46:51;;;;;;;30.08;15.18;;;;;;;;;;5070407;28;20111;-80
2023/01/02 03:49:20;;;;;;;26.70;15.80;;;;;;;;;;5070417;28;20040;-81
2023/01/02 03:51:46;;;;;;;28.88;16.20;;;;;;;;;;5068759;28;20469;-81
2023/01/02 03:54:13;;;;;;;35.20;16.33;;;;;;;;;;5067889;28;20036;-84
2023/01/02 03:56:57;;;;;;;36.55;16.23;;;;;;;;;;5055498;28;20052;-84
2023/01/02 03:59:29;;;;;;;27.30;15.73;;;;;;;;;;5074410;28;20465;-83
2023/01/02 04:02:00;;;;;;;32.17;15.93;;;;;;;;;;5071960;28;20028;-81
2023/01/02 04:04:39;;;;;;;27.58;15.82;;;;;;;;;;5052173;28;20820;-84
2023/01/02 04:07:08;;;;;;;29.95;15.55;;;;;;;;;;5072911;28;20057;-86
2023/01/02 04:09:35;;;;;;;29.73;14.50;;;;;;;;;;5070970;28;20043;-86
2023/01/02 04:12:04;;;;;;;29.98;15.48;;;;;;;;;;5072621;28;20260;-84
2023/01/02 04:14:29;;;;;;;33.03;16.15;;;;;;;;;;5067767;28;20043;-82
2023/01/02 04:16:56;;;;;;;27.08;16.77;;;;;;;;;;5068333;28;20040;-84
2023/01/02 04:19:33;;;;;;;36.65;17.58;;;;;;;;;;5067990;28;20116;-82
2023/01/02 04:22:01;;;;;;;27.80;16.52;;;;;;;;;;5083167;28;20061;-81
2023/01/02 04:24:30;;;;;;;32.60;16.10;;;;;;;;;;5064040;28;20037;-81
2023/01/02 04:27:02;;;;;;;29.02;16.73;;;;;;;;;;5071949;28;20033;-82
2023/01/02 04:29:28;;;;;;;;;;;;;;;;;;5074724;28;20040;-81
2023/01/02 04:32:11;;;;;;;34.28;17.30;;;;;;;;;;5060078;28;19908;-82
2023/01/02 04:34:37;;;;;;;29.33;16.88;;;;;;;;;;5058391;28;20067;-81
2023/01/02 04:37:03;;;;;;;37.33;17.15;;;;;;;;;;5070721;28;20032;-81
2023/01/02 04:39:30;;;;;;;30.98;15.35;;;;;;;;;;5052148;28;20063;-81
2023/01/02 04:41:56;;;;;;;31.00;16.30;;;;;;;;;;5086766;28;20038;-83
2023/01/02 04:44:22;;;;;;;31.73;16.27;;;;;;;;;;5056428;28;20508;-81
2023/01/02 04:46:48;;;;;;;32.40;17.05;;;;;;;;;;5070703;28;20119;-82
2023/01/02 04:49:14;;;;;;;28.00;15.82;;;;;;;;;;5065356;28;20116;-81
2023/01/02 04:51:40;;;;;;;28.00;14.77;;;;;;;;;;5069696;28;20074;-83
2023/01/02 04:54:06;;;;;;;34.33;15.07;;;;;;;;;;5073173;28;20032;-83
2023/01/02 04:56:32;;;;;;;23.38;13.95;;;;;;;;;;5086026;28;20043;-83
2023/01/02 04:58:58;;;;;;;28.60;14.77;;;;;;;;;;5059260;28;20036;-87
2023/01/02 05:01:24;;;;;;;26.42;14.10;;;;;;;;;;5075999;28;20037;-81
2023/01/02 05:03:51;;;;;;;25.67;15.40;;;;;;;;;;5068527;28;20388;-84
2023/01/02 05:06:17;;;;;;;28.92;13.50;;;;;;;;;;5070595;28;20028;-87
2023/01/02 05:08:43;;;;;;;23.85;14.07;;;;;;;;;;5071335;28;20071;-87
2023/01/02 05:11:14;;;;;;;20.85;13.32;;;;;;;;;;5072327;28;20504;-87
2023/01/02 05:13:40;;;;;;;16.90;10.93;;;;;;;;;;5071883;28;20028;-86
2023/01/02 05:16:07;;;;;;;21.50;11.57;;;;;;;;;;5073586;28;20028;-85
2023/01/02 05:18:33;;;;;;;19.25;9.80;;;;;;;;;;5038085;28;20080;-84
2023/01/02 05:23:47;;;;;;;18.33;10.57;;;;;;;;;;5038099;28;20029;-88
2023/01/02 05:23:56;;;;;;;14.43;9.65;;;;;;;;;;5025485;28;20033;-87
2023/01/02 05:26:22;;;;;;;16.00;10.43;;;;;;;;;;5035078;28;20045;-85
2023/01/02 05:28:51;;;;;;;19.25;10.68;;;;;;;;;;5042548;28;20025;-84
2023/01/02 05:31:17;;;;;;;15.80;10.50;;;;;;;;;;5039457;28;20030;-85
2023/01/02 05:33:43;;;;;;;17.80;9.95;;;;;;;;;;5034560;28;20045;-85
2023/01/02 05:36:09;;;;;;;22.52;11.48;;;;;;;;;;5031504;28;20044;-85
2023/01/02 05:38:35;;;;;;;18.88;11.57;;;;;;;;;;5043941;28;20051;-85
2023/01/02 05:41:01;;;;;;;18.58;12.43;;;;;;;;;;5034436;28;20537;-85
2023/01/02 05:43:29;;;;;;;19.08;12.35;;;;;;;;;;5030669;28;20151;-85
2023/01/02 05:45:55;;;;;;;20.90;12.38;;;;;;;;;;5028518;28;20033;-86
2023/01/02 05:48:21;;;;;;;20.80;12.73;;;;;;;;;;5032251;28;20057;-83
2023/01/02 05:50:47;;;;;;;18.17;12.52;;;;;;;;;;5030649;28;20087;-84
2023/01/02 05:53:13;;;;;;;19.00;13.20;;;;;;;;;;5033028;28;20061;-81
2023/01/02 05:55:39;;;;;;;18.77;12.43;;;;;;;;;;5042241;28;20081;-84
2023/01/02 05:58:05;;;;;;;22.00;14.00;;;;;;;;;;5048465;28;20032;-83
2023/01/02 06:00:31;;;;;;;18.35;13.52;;;;;;;;;;5030303;28;20026;-82
2023/01/02 06:02:57;;;;;;;20.27;12.65;;;;;;;;;;5040541;28;20029;-84
2023/01/02 06:05:23;;;;;;;22.17;14.15;;;;;;;;;;5038339;28;20483;-82
2023/01/02 06:07:49;;;;;;;20.13;13.73;;;;;;;;;;5038980;28;20124;-88
2023/01/02 06:10:15;;;;;;;18.77;12.30;;;;;;;;;;5035530;28;20025;-82
2023/01/02 06:12:41;;;;;;;19.70;11.90;;;;;;;;;;5042401;28;20041;-86
2023/01/02 06:15:07;;;;;;;19.90;12.43;;;;;;;;;;5023756;28;20030;-83
2023/01/02 06:17:34;;;;;;;18.17;11.05;;;;;;;;;;5021882;28;20111;-85
2023/01/02 06:19:59;;;;;;;12.73;10.07;;;;;;;;;;5047258;28;20037;-87
2023/01/02 06:22:25;;;;;;;12.65;9.25;;;;;;;;;;5052848;28;20029;-86
2023/01/02 06:24:51;;;;;;;15.20;11.48;;;;;;;;;;5036379;28;20041;-85
2023/01/02 06:27:18;;;;;;;16.10;11.73;;;;;;;;;;5048038;28;20056;-85
2023/01/02 06:29:44;;;;;;;14.35;10.60;;;;;;;;;;5047535;28;20031;-83
2023/01/02 06:32:10;;;;;;;13.63;9.65;;;;;;;;;;5034798;28;20025;-87
2023/01/02 06:34:36;;;;;;;13.88;10.82;;;;;;;;;;5056098;28;20028;-83
2023/01/02 06:37:02;;;;;;;12.07;9.48;;;;;;;;;;5054711;28;20040;-87
2023/01/02 06:39:28;;;;;;;15.40;10.10;;;;;;;;;;5048972;28;20078;-83
2023/01/02 06:41:54;;;;;;;15.27;8.77;;;;;;;;;;5052529;28;20025;-85
2023/01/02 06:44:20;;;;;;;18.25;9.48;;;;;;;;;;5054359;28;20107;-85
2023/01/02 06:46:46;;;;;;;20.85;10.55;;;;;;;;;;5054913;28;20037;-84
2023/01/02 06:49:12;;;;;;;22.38;10.77;;;;;;;;;;5039886;28;20446;-84
2023/01/02 06:51:38;;;;;;;16.08;8.10;;;;;;;;;;5049470;28;20021;-83
2023/01/02 06:54:04;;;;;;;14.23;7.15;;;;;;;;;;5046299;28;20029;-85
2023/01/02 06:56:30;;;;;;;11.00;5.90;;;;;;;;;;5050219;28;20087;-86
2023/01/02 06:58:58;;;;;;;9.45;6.15;;;;;;;;;;5052772;28;20030;-90
2023/01/02 07:01:24;;;;;;;10.98;5.30;;;;;;;;;;5047394;28;20041;-85
2023/01/02 07:03:50;;;;;;;9.38;4.05;;;;;;;;;;5047048;28;20029;-87
2023/01/02 07:06:18;;;;;;;6.40;3.00;;;;;;;;;;5046391;28;20041;-86
2023/01/02 07:08:44;;;;;;;6.40;2.50;;;;;;;;;;5037915;28;20350;-89
2023/01/02 07:11:10;;;;;;;3.58;2.10;;;;;;;;;;5049857;28;20032;-83
2023/01/02 07:13:36;;;;;;;4.05;1.67;;;;;;;;;;5062736;28;20049;-83
2023/01/02 07:16:03;;;;;;;1.88;1.05;;;;;;;;;;5070694;28;20021;-81
2023/01/02 07:18:29;;;;;;;2.67;1.15;;;;;;;;;;5065174;28;20071;-84
2023/01/02 07:20:55;;;;;;;0.57;0.50;;;;;;;;;;5074670;28;20378;-79
2023/01/02 07:23:22;;;;;;;3.72;1.10;;;;;;;;;;5043820;28;20033;-79
2023/01/02 07:25:52;;;;;;;4.95;1.20;;;;;;;;;;5066589;28;20484;-78
2023/01/02 07:28:18;;;;;;;2.90;1.00;;;;;;;;;;5055923;28;20106;-79
2023/01/02 07:30:44;;;;;;;6.55;1.77;;;;;;;;;;5043140;28;20840;-82
2023/01/02 07:33:10;;;;;;;12.95;6.47;;;;;;;;;;5040141;28;20147;-79
2023/01/02 07:35:36;;;;;;;2.63;1.00;;;;;;;;;;5061460;28;20449;-84
2023/01/02 07:38:02;;;;;;;4.78;1.00;;;;;;;;;;5069598;28;20033;-85
2023/01/02 07:40:29;;;;;;;7.53;1.02;;;;;;;;;;5067063;28;20036;-82
2023/01/02 07:42:55;;;;;;;4.32;1.55;;;;;;;;;;5068886;28;20044;-83
2023/01/02 07:45:21;;;;;;;3.20;1.33;;;;;;;;;;5069065;28;20040;-82
2023/01/02 07:47:47;;;;;;;2.95;1.38;;;;;;;;;;5069538;28;20025;-82
2023/01/02 07:50:13;;;;;;;6.22;1.60;;;;;;;;;;5054339;28;20079;-82
2023/01/02 07:52:41;;;;;;;2.83;1.40;;;;;;;;;;5066573;28;20041;-79
2023/01/02 07:55:07;;;;;;;2.03;1.10;;;;;;;;;;5063533;28;20060;-80
2023/01/02 07:57:33;;;;;;;1.85;0.93;;;;;;;;;;5061453;28;20495;-80
2023/01/02 07:59:59;;;;;;;3.03;1.00;;;;;;;;;;5045413;28;20033;-80
2023/01/02 08:02:25;;;;;;;1.80;0.90;;;;;;;;;;5057150;28;20021;-77
2023/01/02 08:04:51;;;;;;;6.05;1.58;;;;;;;;;;5047031;28;20051;-79
2023/01/02 08:07:17;;;;;;;2.92;1.52;;;;;;;;;;5069264;28;20071;-80
2023/01/02 08:09:43;;;;;;;3.70;1.45;;;;;;;;;;5061678;28;20036;-79
2023/01/02 08:12:09;;;;;;;2.80;1.45;;;;;;;;;;5064501;28;20024;-78
2023/01/02 08:14:36;;;;;;;4.78;1.90;;;;;;;;;;5063065;28;20033;-80
2023/01/02 08:17:02;;;;;;;4.35;2.42;;;;;;;;;;5054378;28;20432;-79
2023/01/02 08:19:28;;;;;;;6.57;4.03;;;;;;;;;;5063354;28;20043;-77
2023/01/02 08:21:54;;;;;;;20.77;12.57;;;;;;;;;;5065788;28;20036;-76
2023/01/02 08:24:20;;;;;;;3.97;2.63;;;;;;;;;;5060760;28;20037;-81
2023/01/02 08:26:46;;;;;;;2.65;1.08;;;;;;;;;;5070479;28;20060;-78
2023/01/02 08:29:12;;;;;;;3.45;1.17;;;;;;;;;;5062802;28;20075;-80
2023/01/02 08:31:38;;;;;;;2.33;1.60;;;;;;;;;;5070196;28;20031;-80
2023/01/02 08:34:04;;;;;;;1.70;1.40;;;;;;;;;;5059302;28;20040;-79
2023/01/02 08:36:30;;;;;;;9.13;2.65;;;;;;;;;;5052045;28;20037;-83
2023/01/02 08:38:56;;;;;;;9.15;3.40;;;;;;;;;;5060734;28;20029;-82
2023/01/02 08:41:35;;;;;;;14.40;5.88;;;;;;;;;;5041186;28;20069;-84
2023/01/02 08:44:01;;;;;;;11.20;5.22;;;;;;;;;;5068194;28;20056;-89
2023/01/02 08:46:27;;;;;;;13.27;5.50;;;;;;;;;;5060656;28;20071;-83
2023/01/02 08:48:53;;;;;;;31.30;17.13;;;;;;;;;;5071453;28;20033;-83
2023/01/02 08:51:20;;;;;;;11.98;8.05;;;;;;;;;;5076508;28;20112;-83
2023/01/02 08:53:46;;;;;;;6.93;4.07;;;;;;;;;;5044218;28;20753;-82
2023/01/02 08:56:22;;;;;;;7.20;4.45;;;;;;;;;;5065370;28;20037;-82
2023/01/02 08:58:59;;;;;;;8.15;3.55;;;;;;;;;;5058116;28;20098;-82
2023/01/02 09:01:25;;;;;;;10.38;4.45;;;;;;;;;;5063047;28;20048;-81
2023/01/02 09:03:51;;;;;;;11.00;5.10;;;;;;;;;;5056403;28;20059;-82
2023/01/02 09:06:18;;;;;;;11.30;5.38;;;;;;;;;;5042912;28;20052;-82
2023/01/02 09:08:44;;;;;;;8.55;4.38;;;;;;;;;;5064602;28;20388;-82
2023/01/02 09:11:15;;;;;;;15.18;6.18;;;;;;;;;;5064277;28;20276;-82
2023/01/02 09:13:41;;;;;;;11.38;3.65;;;;;;;;;;5063157;28;20133;-81
2023/01/02 09:16:08;;;;;;;6.53;3.45;;;;;;;;;;5056889;28;20042;-81
2023/01/02 09:18:34;;;;;;;7.35;3.38;;;;;;;;;;5057960;28;20060;-85
2023/01/02 09:21:00;;;;;;;17.67;9.52;;;;;;;;;;5063556;28;20040;-83
2023/01/02 09:23:26;;;;;;;12.85;3.80;;;;;;;;;;5070530;28;20103;-81
2023/01/02 09:25:52;;;;;;;10.57;3.85;;;;;;;;;;5060973;28;20048;-78
2023/01/02 09:28:18;;;;;;;11.02;3.72;;;;;;;;;;5064360;28;20133;-82
2023/01/02 09:30:44;;;;;;;10.93;3.25;;;;;;;;;;5046738;28;20062;-80
2023/01/02 09:33:10;;;;;;;7.72;4.10;;;;;;;;;;5063484;28;20040;-81
2023/01/02 09:35:36;;;;;;;10.45;2.83;;;;;;;;;;5054602;28;20035;-82
2023/01/02 09:38:02;;;;;;;4.45;2.25;;;;;;;;;;5051986;28;20025;-82
2023/01/02 09:40:28;;;;;;;9.18;3.05;;;;;;;;;;5051267;28;20175;-80
2023/01/02 09:42:54;;;;;;;8.70;3.45;;;;;;;;;;5065999;28;20024;-81
2023/01/02 09:45:21;;;;;;;10.68;3.10;;;;;;;;;;5067456;28;20048;-79
2023/01/02 09:47:47;;;;;;;7.03;3.00;;;;;;;;;;5068252;28;20073;-80
2023/01/02 09:50:16;;;;;;;9.35;2.75;;;;;;;;;;5071320;28;20024;-80
2023/01/02 09:52:44;;;;;;;6.82;2.85;;;;;;;;;;5066940;28;20502;-82
2023/01/02 09:55:14;;;;;;;3.70;2.67;;;;;;;;;;5065624;28;20107;-82
2023/01/02 09:57:53;;;;;;;3.90;2.10;;;;;;;;;;5065658;28;20112;-81
2023/01/02 10:00:20;;;;;;;15.57;8.60;;;;;;;;;;5071688;28;20032;-82
2023/01/02 10:03:10;;;;;;;5.32;2.22;;;;;;;;;;5045579;28;20033;-83
2023/01/02 10:05:47;;;;;;;5.43;2.90;;;;;;;;;;5061392;28;20043;-83
2023/01/02 10:08:27;;;;;;;4.80;2.00;;;;;;;;;;5070022;28;20029;-84
2023/01/02 10:10:56;;;;;;;3.13;1.85;;;;;;;;;;5064473;28;20064;-82
2023/01/02 10:13:58;;;;;;;4.45;1.70;;;;;;;;;;5071740;28;20028;-82
2023/01/02 10:16:30;;;;;;;8.23;3.92;;;;;;;;;;5014714;28;20033;-81
2023/01/02 10:18:57;;;;;;;10.20;5.20;;;;;;;;;;5046261;28;20094;-83
2023/01/02 10:21:29;;;;;;;8.73;3.05;;;;;;;;;;5066745;28;20784;-81
2023/01/02 10:24:02;;;;;;;5.07;3.45;;;;;;;;;;5067325;28;20119;-82
2023/01/02 10:26:30;;;;;;;9.40;3.92;;;;;;;;;;5057180;28;20555;-81
2023/01/02 10:28:56;;;;;;;5.80;2.58;;;;;;;;;;5055764;28;20488;-82
2023/01/02 10:31:30;;;;;;;6.18;3.50;;;;;;;;;;5067718;28;20406;-79
2023/01/02 10:33:58;;;;;;;7.10;3.33;;;;;;;;;;5065511;28;20059;-82
2023/01/02 10:36:25;;;;;;;8.60;3.42;;;;;;;;;;5069947;28;20035;-80
2023/01/02 10:38:52;;;;;;;6.32;3.10;;;;;;;;;;5067126;28;20029;-80
2023/01/02 10:41:18;;;;;;;10.25;4.00;;;;;;;;;;5066703;28;20037;-80
2023/01/02 10:43:47;;;;;;;9.77;4.43;;;;;;;;;;5064166;28;20056;-80
2023/01/02 10:46:13;;;;;;;5.47;2.45;;;;;;;;;;5068194;28;20029;-80
2023/01/02 10:48:41;;;;;;;8.38;2.63;;;;;;;;;;5069465;28;20032;-80
2023/01/02 10:51:11;;;;;;;7.40;2.47;;;;;;;;;;5063201;28;20029;-81
2023/01/02 10:53:37;;;;;;;6.47;2.25;;;;;;;;;;5067534;28;20490;-80
2023/01/02 10:56:08;;;;;;;5.60;2.25;;;;;;;;;;5059170;28;20029;-81
2023/01/02 10:58:34;;;;;;;12.10;1.90;;;;;;;;;;5054744;28;20033;-80
2023/01/02 11:01:06;;;;;;;7.82;2.05;;;;;;;;;;5065105;28;20111;-81
2023/01/02 11:03:33;;;;;;;9.52;2.40;;;;;;;;;;5051520;28;20503;-81
2023/01/02 11:05:59;;;;;;;5.25;1.83;;;;;;;;;;5059027;28;20513;-81
2023/01/02 11:08:39;;;;;;;6.13;2.70;;;;;;;;;;5064831;28;20067;-82
2023/01/02 11:11:16;;;;;;;9.43;2.30;;;;;;;;;;5059279;28;20087;-81
2023/01/02 11:13:50;;;;;;;16.13;6.65;;;;;;;;;;5054675;28;20049;-78
2023/01/02 11:16:17;;;;;;;8.00;3.78;;;;;;;;;;5064855;28;20032;-78
2023/01/02 11:18:49;;;;;;;127.13;77.68;;;;;;;;;;5063742;28;20115;-77
2023/01/02 11:21:23;;;;;;;9.43;3.15;;;;;;;;;;5059331;28;20125;-78
2023/01/02 11:23:49;;;;;;;13.38;3.38;;;;;;;;;;5062558;28;20032;-78
2023/01/02 11:26:22;;;;;;;5.03;2.03;;;;;;;;;;5066322;28;20537;-80
2023/01/02 11:28:50;;;;;;;7.05;2.42;;;;;;;;;;5066010;28;20082;-79
2023/01/02 11:31:16;;;;;;;7.72;2.75;;;;;;;;;;5058900;28;20048;-80
2023/01/02 11:33:43;;;;;;;7.43;2.50;;;;;;;;;;5043513;28;20040;-80
2023/01/02 11:36:12;;;;;;;10.63;1.95;;;;;;;;;;5063781;28;20041;-78
2023/01/02 11:38:41;;;;;;;10.80;2.67;;;;;;;;;;5057388;28;20094;-78
2023/01/02 11:41:20;;;;;;;7.00;2.05;;;;;;;;;;5071410;28;20082;-78
2023/01/02 11:43:50;;;;;;;13.07;2.42;;;;;;;;;;5060733;28;20107;-79
2023/01/02 11:46:33;;;;;;;10.90;1.90;;;;;;;;;;5064129;28;20033;-78
2023/01/02 11:49:07;;;;;;;7.32;1.48;;;;;;;;;;5064887;28;20036;-80
2023/01/02 11:51:34;;;;;;;5.55;1.40;;;;;;;;;;5065001;28;20032;-78
2023/01/02 11:54:03;;;;;;;7.53;1.20;;;;;;;;;;5064760;28;20166;-77
2023/01/02 11:56:34;;;;;;;14.95;1.80;;;;;;;;;;5061680;28;20740;-78
2023/01/02 11:59:15;;;;;;;6.60;2.17;;;;;;;;;;5067490;28;20029;-80
2023/01/02 12:01:44;;;;;;;8.50;1.70;;;;;;;;;;5080532;28;20028;-76
2023/01/02 12:04:12;;;;;;;9.95;1.85;;;;;;;;;;5071798;28;20515;-79
2023/01/02 12:06:44;;;;;;;6.88;1.60;;;;;;;;;;5068352;28;20040;-79
2023/01/02 12:09:11;;;;;;;9.05;1.90;;;;;;;;;;5072650;28;20056;-81
2023/01/02 12:11:47;;;;;;;6.25;1.42;;;;;;;;;;5061530;28;20044;-80
2023/01/02 12:14:15;;;;;;;10.20;2.70;;;;;;;;;;5065201;28;20042;-81
2023/01/02 12:16:50;;;;;;;35.95;16.05;;;;;;;;;;5061893;28;20035;-80
2023/01/02 12:19:34;;;;;;;8.93;2.00;;;;;;;;;;5069556;28;20045;-80
2023/01/02 12:22:00;;;;;;;13.38;1.67;;;;;;;;;;5062887;28;20028;-79
2023/01/02 12:24:32;;;;;;;7.68;1.92;;;;;;;;;;5067899;28;20039;-82
2023/01/02 12:26:58;;;;;;;8.75;1.70;;;;;;;;;;5060682;28;20037;-81
2023/01/02 12:29:43;;;;;;;9.63;1.88;;;;;;;;;;5064711;28;20037;-82
2023/01/02 12:32:19;;;;;;;8.23;1.63;;;;;;;;;;5070902;28;20465;-80
2023/01/02 12:35:00;;;;;;;10.95;1.90;;;;;;;;;;5066016;28;20553;-81
2023/01/02 12:37:44;;;;;;;12.75;2.10;;;;;;;;;;5065716;28;20091;-82
2023/01/02 12:40:22;;;;;;;9.20;2.15;;;;;;;;;;5051460;28;20465;-80
2023/01/02 12:42:48;;;;;;;17.92;2.53;;;;;;;;;;5061779;28;20028;-79
2023/01/02 12:45:34;;;;;;;15.18;2.90;;;;;;;;;;5058881;28;20020;-81
2023/01/02 12:48:19;;;;;;;14.10;2.30;;;;;;;;;;5042074;28;20048;-81
2023/01/02 12:50:54;;;;;;;17.10;2.30;;;;;;;;;;5070380;28;20107;-82
2023/01/02 12:53:21;;;;;;;18.73;3.35;;;;;;;;;;5051749;28;20072;-82
2023/01/02 12:55:50;;;;;;;17.75;3.08;;;;;;;;;;5072284;28;20025;-82
2023/01/02 12:58:16;;;;;;;10.25;2.97;;;;;;;;;;5061546;28;20041;-83
2023/01/02 13:00:48;;;;;;;16.20;4.25;;;;;;;;;;5067243;28;20086;-82
2023/01/02 13:03:33;;;;;;;14.68;2.65;;;;;;;;;;5065633;28;20024;-83
2023/01/02 13:06:03;;;;;;;13.90;3.15;;;;;;;;;;5073539;28;20115;-86
2023/01/02 13:08:32;;;;;;;18.98;3.85;;;;;;;;;;5070386;28;20385;-84
2023/01/02 13:11:00;;;;;;;19.63;4.90;;;;;;;;;;5080062;28;20090;-83
2023/01/02 13:13:29;;;;;;;22.05;5.28;;;;;;;;;;5055725;28;20125;-81
2023/01/02 13:15:59;;;;;;;22.45;3.83;;;;;;;;;;5071888;28;20439;-81
2023/01/02 13:18:30;;;;;;;13.60;3.83;;;;;;;;;;5050039;28;20049;-80
2023/01/02 13:21:08;;;;;;;15.40;3.13;;;;;;;;;;5051888;28;20033;-82
2023/01/02 13:23:42;;;;;;;18.63;3.30;;;;;;;;;;5049107;28;20028;-80
2023/01/02 13:26:28;;;;;;;18.13;3.67;;;;;;;;;;5045217;28;20033;-80
2023/01/02 13:28:54;;;;;;;12.43;4.13;;;;;;;;;;5032250;28;20029;-81
2023/01/02 13:31:21;;;;;;;12.95;3.00;;;;;;;;;;5041894;28;20114;-80
2023/01/02 13:33:49;;;;;;;16.90;3.22;;;;;;;;;;5051139;28;20064;-80
2023/01/02 13:36:27;;;;;;;19.63;3.78;;;;;;;;;;5047537;28;20033;-80
2023/01/02 13:38:55;;;;;;;15.02;3.70;;;;;;;;;;5047746;28;20071;-81
2023/01/02 13:41:21;;;;;;;23.17;2.95;;;;;;;;;;5043504;28;20033;-80
2023/01/02 13:43:53;;;;;;;17.58;4.25;;;;;;;;;;5031697;28;20045;-80
2023/01/02 13:46:29;;;;;;;21.83;5.47;;;;;;;;;;5043898;28;20032;-79
2023/01/02 13:49:00;;;;;;;15.85;3.42;;;;;;;;;;5052292;28;20099;-80
2023/01/02 13:51:30;;;;;;;19.67;4.07;;;;;;;;;;5049639;28;20024;-80
2023/01/02 13:53:56;;;;;;;18.13;4.63;;;;;;;;;;5051574;28;20036;-81
2023/01/02 13:56:23;;;;;;;11.45;4.05;;;;;;;;;;5050381;28;20064;-80
2023/01/02 13:58:55;;;;;;;18.63;4.05;;;;;;;;;;5047863;28;20112;-80
2023/01/02 14:01:24;;;;;;;21.42;5.07;;;;;;;;;;5040753;28;20560;-79
2023/01/02 14:04:18;;;;;;;22.13;4.93;;;;;;;;;;5031495;28;20033;-81
2023/01/02 14:06:48;;;;;;;16.55;2.85;;;;;;;;;;5037300;28;20029;-83
2023/01/02 14:09:15;;;;;;;28.17;4.40;;;;;;;;;;5040263;28;20021;-81
2023/01/02 14:11:41;;;;;;;17.08;2.60;;;;;;;;;;5046262;28;20029;-82
2023/01/02 14:14:32;;;;;;;17.42;3.10;;;;;;;;;;5041408;28;20039;-81
2023/01/02 14:16:58;;;;;;;26.45;4.18;;;;;;;;;;5053884;28;20036;-80
2023/01/02 14:19:24;;;;;;;16.77;3.70;;;;;;;;;;5069402;28;20029;-80
2023/01/02 14:21:59;;;;;;;18.45;4.55;;;;;;;;;;5071241;28;20461;-81
2023/01/02 14:24:32;;;;;;;16.10;2.58;;;;;;;;;;5067230;28;20043;-82
2023/01/02 14:27:17;;;;;;;16.15;2.85;;;;;;;;;;5052794;28;20039;-82
2023/01/02 14:29:55;;;;;;;15.30;3.22;;;;;;;;;;5083467;28;20499;-81
2023/01/02 14:32:21;;;;;;;15.00;3.42;;;;;;;;;;5068783;28;20032;-80
2023/01/02 14:34:48;;;;;;;15.82;2.60;;;;;;;;;;5053787;28;20041;-81
2023/01/02 14:37:26;;;;;;;14.20;2.58;;;;;;;;;;5062825;28;20378;-82
2023/01/02 14:39:52;;;;;;;16.83;2.67;;;;;;;;;;5063577;28;20039;-84
2023/01/02 14:45:22;;;;;;;12.25;2.40;;;;;;;;;;5065579;28;20079;-80